sensor_id;sensor_type;location;lat;lon;timestamp;temperature;humidity
5828;DHT22;42583;50.240;8.444;2022-10-16T00:14:26;13.60;99.90
5828;DHT22;42583;50.240;8.444;2022-10-16T00:29:27;13.50;99.90
5828;DHT22;42583;50.240;8.444;2022-10-16T00:44:50;13.40;99.90
5828;DHT22;42583;50.240;8.444;2022-10-16T00:59:52;13.50;99.90
5828;DHT22;42583;50.240;8.444;2022-10-16T01:14:58;13.40;99.90
5828;DHT22;42583;50.240;8.444;2022-10-16T01:30:13;13.40;99.90
5828;DHT22;42583;50.240;8.444;2022-10-16T01:45:17;13.40;99.90
5828;DHT22;42583;50.240;8.444;2022-10-16T02:00:20;13.40;99.90
5828;DHT22;42583;50.240;8.444;2022-10-16T02:15:21;13.30;99.90
5828;DHT22;42583;50.240;8.444;2022-10-16T02:30:36;13.30;99.90
5828;DHT22;42583;50.240;8.444;2022-10-16T02:45:37;13.30;99.90
5828;DHT22;42583;50.240;8.444;2022-10-16T03:00:38;13.30;99.90
5828;DHT22;42583;50.240;8.444;2022-10-16T03:15:38;13.20;99.90
5828;DHT22;42583;50.240;8.444;2022-10-16T03:30:39;13.00;99.90
5828;DHT22;42583;50.240;8.444;2022-10-16T03:45:40;12.90;99.90
5828;DHT22;42583;50.240;8.444;2022-10-16T04:00:41;12.90;99.90
5828;DHT22;42583;50.240;8.444;2022-10-16T04:15:44;13.00;99.90
5828;DHT22;42583;50.240;8.444;2022-10-16T04:30:44;12.90;99.90
5828;DHT22;42583;50.240;8.444;2022-10-16T04:45:45;12.90;99.90
5828;DHT22;42583;50.240;8.444;2022-10-16T05:00:45;12.90;99.90
5828;DHT22;42583;50.240;8.444;2022-10-16T05:15:47;13.00;99.90
5828;DHT22;42583;50.240;8.444;2022-10-16T05:30:48;13.10;99.90
5828;DHT22;42583;50.240;8.444;2022-10-16T05:46:00;13.10;99.90
5828;DHT22;42583;50.240;8.444;2022-10-16T06:01:07;13.20;99.90
5828;DHT22;42583;50.240;8.444;2022-10-16T06:16:10;13.30;99.90
5828;DHT22;42583;50.240;8.444;2022-10-16T06:31:12;13.40;99.90
5828;DHT22;42583;50.240;8.444;2022-10-16T06:46:14;13.40;99.90
5828;DHT22;42583;50.240;8.444;2022-10-16T07:01:17;13.40;99.90
5828;DHT22;42583;50.240;8.444;2022-10-16T07:16:20;13.50;99.90
5828;DHT22;42583;50.240;8.444;2022-10-16T07:31:21;13.70;99.90
5828;DHT22;42583;50.240;8.444;2022-10-16T07:46:23;13.70;99.90
5828;DHT22;42583;50.240;8.444;2022-10-16T08:01:23;13.80;99.90
5828;DHT22;42583;50.240;8.444;2022-10-16T08:16:24;13.90;99.90
5828;DHT22;42583;50.240;8.444;2022-10-16T08:31:25;13.90;99.90
5828;DHT22;42583;50.240;8.444;2022-10-16T09:02:37;14.10;99.90
5828;DHT22;42583;50.240;8.444;2022-10-16T09:33:04;14.30;99.90
5828;DHT22;42583;50.240;8.444;2022-10-16T09:48:13;14.40;99.90
5828;DHT22;42583;50.240;8.444;2022-10-16T10:03:40;14.50;99.90
5828;DHT22;42583;50.240;8.444;2022-10-16T10:18:41;14.90;99.90
5828;DHT22;42583;50.240;8.444;2022-10-16T11:34:29;16.10;99.90
5828;DHT22;42583;50.240;8.444;2022-10-16T11:49:33;16.10;99.90
5828;DHT22;42583;50.240;8.444;2022-10-16T12:04:36;17.40;99.90
5828;DHT22;42583;50.240;8.444;2022-10-16T12:19:40;19.80;99.90
5828;DHT22;42583;50.240;8.444;2022-10-16T12:34:43;19.50;99.90
5828;DHT22;42583;50.240;8.444;2022-10-16T12:49:52;23.30;99.90
5828;DHT22;42583;50.240;8.444;2022-10-16T13:05:21;22.90;94.20
5828;DHT22;42583;50.240;8.444;2022-10-16T13:35:33;21.00;96.10
5828;DHT22;42583;50.240;8.444;2022-10-16T13:50:34;20.90;95.60
5828;DHT22;42583;50.240;8.444;2022-10-16T14:05:35;20.00;96.30
5828;DHT22;42583;50.240;8.444;2022-10-16T14:20:35;20.00;97.60
5828;DHT22;42583;50.240;8.444;2022-10-16T14:35:39;18.80;98.80
5828;DHT22;42583;50.240;8.444;2022-10-16T14:50:40;19.20;99.90
5828;DHT22;42583;50.240;8.444;2022-10-16T15:05:41;19.10;99.90
5828;DHT22;42583;50.240;8.444;2022-10-16T15:20:41;21.50;99.50
5828;DHT22;42583;50.240;8.444;2022-10-16T15:35:42;20.20;95.30
5828;DHT22;42583;50.240;8.444;2022-10-16T15:50:43;18.50;99.80
5828;DHT22;42583;50.240;8.444;2022-10-16T16:05:43;17.70;99.90
5828;DHT22;42583;50.240;8.444;2022-10-16T16:20:44;17.30;99.90
5828;DHT22;42583;50.240;8.444;2022-10-16T16:35:44;17.00;99.90
5828;DHT22;42583;50.240;8.444;2022-10-16T16:50:45;16.70;99.90
5828;DHT22;42583;50.240;8.444;2022-10-16T17:06:05;16.60;99.90
5828;DHT22;42583;50.240;8.444;2022-10-16T17:21:07;16.50;99.90
5828;DHT22;42583;50.240;8.444;2022-10-16T17:36:08;16.50;99.90
5828;DHT22;42583;50.240;8.444;2022-10-16T17:51:12;16.40;99.90
5828;DHT22;42583;50.240;8.444;2022-10-16T18:06:13;16.40;99.90
5828;DHT22;42583;50.240;8.444;2022-10-16T18:21:15;16.30;99.90
5828;DHT22;42583;50.240;8.444;2022-10-16T18:36:24;16.30;99.90
5828;DHT22;42583;50.240;8.444;2022-10-16T18:51:30;16.20;99.90
5828;DHT22;42583;50.240;8.444;2022-10-16T19:06:36;16.20;99.90
5828;DHT22;42583;50.240;8.444;2022-10-16T19:21:38;16.20;99.90
5828;DHT22;42583;50.240;8.444;2022-10-16T19:36:41;16.20;99.90
5828;DHT22;42583;50.240;8.444;2022-10-16T19:51:45;16.30;99.90
5828;DHT22;42583;50.240;8.444;2022-10-16T20:06:45;16.30;99.90
5828;DHT22;42583;50.240;8.444;2022-10-16T20:21:46;16.50;99.90
5828;DHT22;42583;50.240;8.444;2022-10-16T20:36:46;16.70;99.90
5828;DHT22;42583;50.240;8.444;2022-10-16T20:51:50;16.90;99.90
5828;DHT22;42583;50.240;8.444;2022-10-16T21:06:50;17.00;99.90
5828;DHT22;42583;50.240;8.444;2022-10-16T21:21:51;17.20;99.90
5828;DHT22;42583;50.240;8.444;2022-10-16T21:36:51;17.40;99.90
5828;DHT22;42583;50.240;8.444;2022-10-16T21:51:52;17.50;99.90
5828;DHT22;42583;50.240;8.444;2022-10-16T22:06:52;17.60;99.90
5828;DHT22;42583;50.240;8.444;2022-10-16T22:21:54;17.60;99.90
5828;DHT22;42583;50.240;8.444;2022-10-16T22:36:56;17.60;99.90
5828;DHT22;42583;50.240;8.444;2022-10-16T22:51:57;17.50;99.90
5828;DHT22;42583;50.240;8.444;2022-10-16T23:06:57;17.50;99.90
5828;DHT22;42583;50.240;8.444;2022-10-16T23:21:59;17.50;99.90
5828;DHT22;42583;50.240;8.444;2022-10-16T23:37:00;17.30;99.90
5828;DHT22;42583;50.240;8.444;2022-10-16T23:52:03;17.30;99.90
